Time;durP1;ratioP1;P1;durP2;ratioP2;P2;SDS_P1;SDS_P2;PMS_P1;PMS_P2;Temp;Humidity;BMP_temperature;BMP_pressure;BME280_temperature;BME280_humidity;BME280_pressure;Samples;Min_cycle;Max_cycle;Signal;HPM_P1;HPM_P2
2023/08/08 00:00:46;;;;;;;13.05;12.25;;;;;;;;;;5078267;28;20028;-69
2023/08/08 00:03:12;;;;;;;13.15;12.35;;;;;;;;;;5075875;28;20037;-68
2023/08/08 00:05:37;;;;;;;12.88;12.15;;;;;;;;;;5076404;28;20042;-70
2023/08/08 00:08:03;;;;;;;14.00;13.20;;;;;;;;;;5075451;28;20036;-69
2023/08/08 00:10:28;;;;;;;14.70;13.80;;;;;;;;;;5077506;28;20043;-69
2023/08/08 00:12:53;;;;;;;12.73;11.93;;;;;;;;;;5078488;28;20044;-69
2023/08/08 00:15:19;;;;;;;13.13;12.35;;;;;;;;;;5076714;28;20460;-69
2023/08/08 00:17:44;;;;;;;11.50;10.80;;;;;;;;;;5076519;28;20474;-70
2023/08/08 00:20:10;;;;;;;13.43;12.63;;;;;;;;;;5078296;28;20369;-69
2023/08/08 00:22:35;;;;;;;12.25;11.45;;;;;;;;;;5076018;28;20032;-69
2023/08/08 00:25:01;;;;;;;11.57;10.88;;;;;;;;;;5081301;28;20033;-69
2023/08/08 00:27:27;;;;;;;12.38;11.57;;;;;;;;;;5077959;28;20163;-69
2023/08/08 00:29:53;;;;;;;12.27;11.57;;;;;;;;;;5077083;28;20028;-69
2023/08/08 00:32:19;;;;;;;11.90;11.20;;;;;;;;;;5077262;28;20100;-69
2023/08/08 00:34:44;;;;;;;10.70;10.00;;;;;;;;;;5075424;28;20468;-69
2023/08/08 00:37:09;;;;;;;12.68;11.90;;;;;;;;;;5076829;28;20036;-69
2023/08/08 00:39:35;;;;;;;12.90;12.10;;;;;;;;;;5080379;28;20092;-69
2023/08/08 00:42:00;;;;;;;11.32;10.63;;;;;;;;;;5074208;28;20048;-68
2023/08/08 00:44:26;;;;;;;12.20;11.23;;;;;;;;;;5077331;28;22535;-69
2023/08/08 00:46:51;;;;;;;11.55;10.85;;;;;;;;;;5076600;28;20455;-69
2023/08/08 00:49:17;;;;;;;12.25;11.55;;;;;;;;;;5073673;28;20036;-69
2023/08/08 00:51:42;;;;;;;12.80;12.02;;;;;;;;;;5076410;28;20036;-69
2023/08/08 00:54:09;;;;;;;13.13;12.32;;;;;;;;;;5074156;28;20028;-69
2023/08/08 00:56:35;;;;;;;11.25;10.55;;;;;;;;;;5080651;28;20040;-69
2023/08/08 00:59:02;;;;;;;10.70;10.05;;;;;;;;;;5075635;28;20036;-68
2023/08/08 01:01:27;;;;;;;11.65;10.95;;;;;;;;;;5071982;28;20097;-69
2023/08/08 01:03:53;;;;;;;14.02;13.05;;;;;;;;;;5074293;28;20032;-68
2023/08/08 01:06:33;;;;;;;12.57;11.82;;;;;;;;;;5075267;28;20116;-69
2023/08/08 01:09:12;;;;;;;13.18;12.38;;;;;;;;;;5076332;28;20027;-69
2023/08/08 01:11:38;;;;;;;14.40;13.55;;;;;;;;;;5075896;28;20094;-68
2023/08/08 01:14:06;;;;;;;14.20;13.30;;;;;;;;;;5077116;28;20033;-68
2023/08/08 01:16:32;;;;;;;14.10;13.30;;;;;;;;;;5073451;28;20032;-68
2023/08/08 01:18:58;;;;;;;14.48;13.27;;;;;;;;;;5075476;28;20131;-68
2023/08/08 01:21:27;;;;;;;15.38;14.48;;;;;;;;;;5070650;28;20039;-69
2023/08/08 01:24:00;;;;;;;15.55;14.48;;;;;;;;;;5076557;28;20031;-68
2023/08/08 01:26:26;;;;;;;15.45;14.55;;;;;;;;;;5076610;28;20412;-68
2023/08/08 01:28:55;;;;;;;15.95;15.05;;;;;;;;;;5074880;28;20052;-69
2023/08/08 01:31:20;;;;;;;16.33;15.43;;;;;;;;;;5075072;28;20258;-68
2023/08/08 01:33:46;;;;;;;16.63;15.73;;;;;;;;;;5076474;28;20071;-68
2023/08/08 01:36:28;;;;;;;16.83;15.90;;;;;;;;;;5076137;28;20031;-68
2023/08/08 01:38:59;;;;;;;14.48;13.68;;;;;;;;;;5080748;28;20035;-68
2023/08/08 01:41:25;;;;;;;18.25;17.25;;;;;;;;;;5074332;28;20032;-68
2023/08/08 01:43:52;;;;;;;17.88;16.88;;;;;;;;;;5074795;28;20050;-68
2023/08/08 01:46:17;;;;;;;19.90;18.83;;;;;;;;;;5073148;28;20072;-68
2023/08/08 01:48:46;;;;;;;21.88;20.70;;;;;;;;;;5074030;28;20124;-68
2023/08/08 01:51:12;;;;;;;21.38;20.23;;;;;;;;;;5074910;28;20040;-68
2023/08/08 01:53:37;;;;;;;22.08;20.90;;;;;;;;;;5076371;28;20024;-68
2023/08/08 01:56:02;;;;;;;21.23;20.08;;;;;;;;;;5074431;28;20115;-68
2023/08/08 01:58:28;;;;;;;26.42;25.00;;;;;;;;;;5073261;28;20028;-68
2023/08/08 02:00:53;;;;;;;29.52;27.98;;;;;;;;;;5073068;28;20523;-69
2023/08/08 02:03:19;;;;;;;31.35;29.70;;;;;;;;;;5078133;28;20044;-68
2023/08/08 02:05:44;;;;;;;40.25;38.20;;;;;;;;;;5073740;28;20549;-68
2023/08/08 02:08:09;;;;;;;32.67;31.00;;;;;;;;;;5076220;28;20039;-68
2023/08/08 02:10:35;;;;;;;32.22;30.58;;;;;;;;;;5076469;28;20032;-68
2023/08/08 02:13:00;;;;;;;39.47;37.45;;;;;;;;;;5075758;28;20405;-68
2023/08/08 02:15:25;;;;;;;43.55;41.30;;;;;;;;;;5072457;28;20047;-68
2023/08/08 02:17:52;;;;;;;42.55;40.38;;;;;;;;;;5076324;28;20046;-68
2023/08/08 02:20:18;;;;;;;42.38;40.17;;;;;;;;;;5072057;28;20043;-69
2023/08/08 02:22:43;;;;;;;39.05;37.03;;;;;;;;;;5073359;28;20024;-68
2023/08/08 02:25:08;;;;;;;39.30;37.30;;;;;;;;;;5075780;28;20362;-68
2023/08/08 02:27:34;;;;;;;37.97;36.00;;;;;;;;;;5075067;28;20405;-68
2023/08/08 02:29:59;;;;;;;39.97;37.95;;;;;;;;;;5074369;28;20343;-68
2023/08/08 02:32:24;;;;;;;45.33;43.03;;;;;;;;;;5074035;28;20641;-69
2023/08/08 02:34:50;;;;;;;47.65;45.17;;;;;;;;;;5072214;28;20028;-68
2023/08/08 02:37:15;;;;;;;44.55;42.28;;;;;;;;;;5077267;28;20048;-68
2023/08/08 02:39:43;;;;;;;44.03;41.72;;;;;;;;;;5074811;28;20032;-68
2023/08/08 02:42:08;;;;;;;45.78;43.40;;;;;;;;;;5075216;28;20036;-69
2023/08/08 02:44:33;;;;;;;48.05;45.63;;;;;;;;;;5073375;28;20039;-68
2023/08/08 02:46:59;;;;;;;47.92;45.47;;;;;;;;;;5074154;28;20023;-69
2023/08/08 02:49:24;;;;;;;46.67;44.30;;;;;;;;;;5076833;28;20677;-69
2023/08/08 02:51:49;;;;;;;46.58;44.20;;;;;;;;;;5077391;28;20024;-69
2023/08/08 02:54:15;;;;;;;45.08;42.78;;;;;;;;;;5079268;28;20036;-69
2023/08/08 02:56:40;;;;;;;48.40;45.95;;;;;;;;;;5078853;28;20035;-69
2023/08/08 02:59:05;;;;;;;47.78;45.30;;;;;;;;;;5077440;28;20088;-69
2023/08/08 03:01:31;;;;;;;49.50;47.00;;;;;;;;;;5075815;28;20382;-69
2023/08/08 03:03:56;;;;;;;47.38;44.95;;;;;;;;;;5075791;28;20040;-69
2023/08/08 03:06:21;;;;;;;54.58;51.83;;;;;;;;;;5074438;28;20040;-69
2023/08/08 03:08:47;;;;;;;51.47;48.88;;;;;;;;;;5070751;28;20442;-69
2023/08/08 03:11:12;;;;;;;50.63;48.05;;;;;;;;;;5076340;28;20124;-69
2023/08/08 03:13:37;;;;;;;52.08;49.42;;;;;;;;;;5072967;28;20025;-69
2023/08/08 03:16:03;;;;;;;57.55;54.67;;;;;;;;;;5076222;28;20035;-69
2023/08/08 03:18:29;;;;;;;59.97;56.92;;;;;;;;;;5074614;28;20037;-69
2023/08/08 03:20:54;;;;;;;63.53;60.35;;;;;;;;;;5074984;28;20285;-69
2023/08/08 03:23:19;;;;;;;68.55;65.07;;;;;;;;;;5078913;28;20032;-69
2023/08/08 03:25:45;;;;;;;76.22;72.38;;;;;;;;;;5077530;28;20032;-69
2023/08/08 03:28:10;;;;;;;76.40;72.60;;;;;;;;;;5075850;28;20047;-69
2023/08/08 03:30:37;;;;;;;68.35;64.90;;;;;;;;;;5074734;28;20067;-69
2023/08/08 03:33:02;;;;;;;71.97;68.38;;;;;;;;;;5078526;28;20032;-69
2023/08/08 03:35:28;;;;;;;69.63;66.05;;;;;;;;;;5075805;28;20357;-69
2023/08/08 03:37:53;;;;;;;70.82;67.18;;;;;;;;;;5076837;28;20473;-69
2023/08/08 03:40:18;;;;;;;66.15;62.83;;;;;;;;;;5075701;28;20028;-69
2023/08/08 03:42:44;;;;;;;66.90;63.55;;;;;;;;;;5075398;28;20054;-69
2023/08/08 03:45:09;;;;;;;72.75;69.07;;;;;;;;;;5077497;28;20437;-69
2023/08/08 03:47:35;;;;;;;68.57;65.13;;;;;;;;;;5080687;28;20027;-69
2023/08/08 03:50:00;;;;;;;69.78;66.28;;;;;;;;;;5078417;28;20032;-69
2023/08/08 03:52:26;;;;;;;62.33;59.20;;;;;;;;;;5078656;28;20043;-69
2023/08/08 03:54:51;;;;;;;67.18;63.83;;;;;;;;;;5078067;28;20051;-69
2023/08/08 03:57:17;;;;;;;67.93;64.53;;;;;;;;;;5079007;28;20035;-69
2023/08/08 03:59:42;;;;;;;71.22;67.65;;;;;;;;;;5077502;28;20164;-69
2023/08/08 04:02:08;;;;;;;63.75;60.50;;;;;;;;;;5078854;28;20438;-68
2023/08/08 04:04:33;;;;;;;60.75;57.70;;;;;;;;;;5073591;28;20032;-68
2023/08/08 04:06:59;;;;;;;60.05;56.97;;;;;;;;;;5077450;28;20028;-68
2023/08/08 04:09:24;;;;;;;62.55;59.38;;;;;;;;;;5079976;28;20046;-68
2023/08/08 04:11:49;;;;;;;64.03;60.83;;;;;;;;;;5077758;28;20031;-68
2023/08/08 04:14:15;;;;;;;63.35;60.17;;;;;;;;;;5079958;28;20366;-68
2023/08/08 04:16:40;;;;;;;68.18;64.70;;;;;;;;;;5081273;28;20059;-68
2023/08/08 04:19:05;;;;;;;71.88;68.28;;;;;;;;;;5080166;28;20032;-68
2023/08/08 04:21:32;;;;;;;63.45;60.22;;;;;;;;;;5075951;28;20085;-68
2023/08/08 04:23:58;;;;;;;53.65;50.92;;;;;;;;;;5079156;28;20050;-68
2023/08/08 04:26:24;;;;;;;53.35;50.65;;;;;;;;;;5078888;28;20079;-69
2023/08/08 04:28:49;;;;;;;54.55;51.80;;;;;;;;;;5078055;28;20036;-69
2023/08/08 04:31:14;;;;;;;57.03;54.10;;;;;;;;;;5075868;28;20024;-69
2023/08/08 04:33:40;;;;;;;54.38;51.63;;;;;;;;;;5072875;28;20024;-69
2023/08/08 04:36:05;;;;;;;56.72;53.88;;;;;;;;;;5073280;28;20047;-69
2023/08/08 04:38:30;;;;;;;55.25;52.42;;;;;;;;;;5078831;28;20046;-68
2023/08/08 04:40:56;;;;;;;49.38;46.72;;;;;;;;;;5077106;28;20036;-68
2023/08/08 04:43:21;;;;;;;46.47;44.03;;;;;;;;;;5076529;28;20551;-69
2023/08/08 04:45:46;;;;;;;53.78;51.03;;;;;;;;;;5076028;28;20326;-68
2023/08/08 04:48:12;;;;;;;50.58;48.00;;;;;;;;;;5078562;28;20043;-68
2023/08/08 04:50:37;;;;;;;60.20;57.13;;;;;;;;;;5075729;28;20047;-68
2023/08/08 04:53:02;;;;;;;58.45;55.05;;;;;;;;;;5077048;28;20043;-68
2023/08/08 04:55:28;;;;;;;62.65;59.50;;;;;;;;;;5075614;28;20048;-68
2023/08/08 04:57:53;;;;;;;70.47;66.28;;;;;;;;;;5075327;28;20607;-68
2023/08/08 05:00:18;;;;;;;66.72;63.28;;;;;;;;;;5075703;28;20064;-68
2023/08/08 05:02:44;;;;;;;60.60;57.47;;;;;;;;;;5075857;28;20047;-68
2023/08/08 05:05:09;;;;;;;62.33;59.17;;;;;;;;;;5075521;28;20064;-68
2023/08/08 05:07:37;;;;;;;68.82;65.35;;;;;;;;;;5076709;28;20036;-68
2023/08/08 05:10:03;;;;;;;75.72;71.93;;;;;;;;;;5073862;28;20684;-67
2023/08/08 05:12:28;;;;;;;76.43;72.57;;;;;;;;;;5074760;28;20123;-69
2023/08/08 05:14:54;;;;;;;70.28;66.78;;;;;;;;;;5079613;28;20067;-68
2023/08/08 05:17:19;;;;;;;74.78;71.00;;;;;;;;;;5077645;28;20105;-67
2023/08/08 05:19:44;;;;;;;65.50;62.20;;;;;;;;;;5071967;28;20024;-68
2023/08/08 05:22:10;;;;;;;61.65;58.55;;;;;;;;;;5077571;28;20059;-67
2023/08/08 05:24:35;;;;;;;66.65;63.30;;;;;;;;;;5074770;28;20086;-67
2023/08/08 05:27:01;;;;;;;82.28;78.15;;;;;;;;;;5076503;28;20036;-67
2023/08/08 05:29:26;;;;;;;79.03;75.00;;;;;;;;;;5065628;28;20119;-67
2023/08/08 05:31:52;;;;;;;92.82;88.15;;;;;;;;;;5073995;28;20067;-67
2023/08/08 05:34:17;;;;;;;74.53;70.72;;;;;;;;;;5078153;28;20077;-67
2023/08/08 05:36:42;;;;;;;71.75;68.15;;;;;;;;;;5076106;28;20048;-67
2023/08/08 05:39:09;;;;;;;57.90;54.97;;;;;;;;;;5080590;28;20036;-67
2023/08/08 05:41:35;;;;;;;65.22;61.92;;;;;;;;;;5076869;28;20028;-67
2023/08/08 05:44:00;;;;;;;61.28;58.17;;;;;;;;;;5075110;28;20044;-67
2023/08/08 05:46:25;;;;;;;66.28;62.92;;;;;;;;;;5076438;28;20120;-66
2023/08/08 05:48:51;;;;;;;68.60;65.13;;;;;;;;;;5076716;28;20706;-66
2023/08/08 05:51:16;;;;;;;62.55;59.38;;;;;;;;;;5075405;28;20032;-67
2023/08/08 05:53:41;;;;;;;61.42;58.35;;;;;;;;;;5075530;28;20024;-66
2023/08/08 05:56:08;;;;;;;59.58;56.58;;;;;;;;;;5066687;28;20501;-66
2023/08/08 05:58:34;;;;;;;53.75;51.03;;;;;;;;;;5076727;28;20484;-66
2023/08/08 06:00:59;;;;;;;60.33;57.28;;;;;;;;;;5076005;28;20036;-67
2023/08/08 06:03:24;;;;;;;46.38;43.95;;;;;;;;;;5077429;28;20067;-66
2023/08/08 06:05:50;;;;;;;52.40;49.70;;;;;;;;;;5073987;28;20056;-67
2023/08/08 06:08:16;;;;;;;50.40;47.80;;;;;;;;;;5079031;28;20131;-67
2023/08/08 06:10:42;;;;;;;51.55;48.90;;;;;;;;;;5078313;28;20479;-67
2023/08/08 06:13:07;;;;;;;52.50;49.85;;;;;;;;;;5079098;28;20039;-67
2023/08/08 06:15:32;;;;;;;48.33;45.83;;;;;;;;;;5073897;28;20067;-67
2023/08/08 06:17:58;;;;;;;36.88;34.97;;;;;;;;;;5075468;28;20672;-68
2023/08/08 06:20:23;;;;;;;42.97;40.72;;;;;;;;;;5082674;28;20110;-68
2023/08/08 06:22:49;;;;;;;34.70;32.83;;;;;;;;;;5076086;28;20532;-67
2023/08/08 06:25:14;;;;;;;35.38;33.55;;;;;;;;;;5078193;28;20032;-67
2023/08/08 06:27:40;;;;;;;35.80;33.97;;;;;;;;;;5074354;28;20040;-68
2023/08/08 06:30:06;;;;;;;35.95;34.10;;;;;;;;;;5076510;28;20076;-67
2023/08/08 06:32:31;;;;;;;31.20;29.60;;;;;;;;;;5076182;28;20487;-67
2023/08/08 06:34:56;;;;;;;28.08;26.60;;;;;;;;;;5073913;28;20040;-67
2023/08/08 06:37:22;;;;;;;29.38;27.77;;;;;;;;;;5076443;28;20075;-67
2023/08/08 06:39:47;;;;;;;29.98;28.42;;;;;;;;;;5073826;28;20043;-68
2023/08/08 06:42:13;;;;;;;21.08;19.95;;;;;;;;;;5077861;28;20096;-67
2023/08/08 06:44:43;;;;;;;24.95;23.65;;;;;;;;;;5075624;28;20033;-67
2023/08/08 06:47:08;;;;;;;22.25;20.95;;;;;;;;;;5073215;28;20109;-67
2023/08/08 06:49:34;;;;;;;19.58;18.48;;;;;;;;;;5080618;28;20028;-67
2023/08/08 06:51:59;;;;;;;20.05;18.95;;;;;;;;;;5073781;28;20458;-67
2023/08/08 06:54:28;;;;;;;19.58;18.50;;;;;;;;;;5074713;28;20102;-67
2023/08/08 06:56:53;;;;;;;18.73;17.73;;;;;;;;;;5074549;28;20025;-67
2023/08/08 06:59:19;;;;;;;17.17;16.23;;;;;;;;;;5079171;28;20078;-67
2023/08/08 07:01:44;;;;;;;16.50;15.57;;;;;;;;;;5072816;28;20476;-67
2023/08/08 07:04:09;;;;;;;13.48;12.68;;;;;;;;;;5075278;28;20504;-66
2023/08/08 07:06:36;;;;;;;14.23;13.43;;;;;;;;;;5077203;28;20443;-67
2023/08/08 07:09:02;;;;;;;18.58;14.63;;;;;;;;;;5080089;28;20060;-67
2023/08/08 07:11:28;;;;;;;15.13;14.23;;;;;;;;;;5076578;28;20044;-66
2023/08/08 07:13:53;;;;;;;14.13;13.32;;;;;;;;;;5072361;28;20032;-66
2023/08/08 07:16:18;;;;;;;13.93;13.13;;;;;;;;;;5074958;28;20044;-67
2023/08/08 07:18:44;;;;;;;12.50;11.80;;;;;;;;;;5078993;28;20044;-66
2023/08/08 07:21:09;;;;;;;13.10;12.30;;;;;;;;;;5073610;28;20046;-66
2023/08/08 07:23:34;;;;;;;12.20;11.50;;;;;;;;;;5072165;28;20039;-67
2023/08/08 07:26:00;;;;;;;12.20;11.30;;;;;;;;;;5073338;28;20028;-67
2023/08/08 07:28:25;;;;;;;11.30;10.60;;;;;;;;;;5076513;28;20028;-66
2023/08/08 07:30:50;;;;;;;11.13;10.43;;;;;;;;;;5075128;28;20043;-66
2023/08/08 07:33:16;;;;;;;11.20;10.50;;;;;;;;;;5073791;28;20033;-66
2023/08/08 07:35:41;;;;;;;10.30;9.70;;;;;;;;;;5074391;28;20131;-65
2023/08/08 07:38:07;;;;;;;10.07;9.48;;;;;;;;;;5070324;28;20632;-66
2023/08/08 07:40:33;;;;;;;10.40;9.65;;;;;;;;;;5072886;28;20407;-66
2023/08/08 07:42:58;;;;;;;11.00;10.30;;;;;;;;;;5073718;28;20040;-66
2023/08/08 07:45:24;;;;;;;12.55;11.85;;;;;;;;;;5075580;28;20386;-67
2023/08/08 07:47:49;;;;;;;11.02;10.32;;;;;;;;;;5074941;28;20032;-66
2023/08/08 07:50:14;;;;;;;12.48;11.77;;;;;;;;;;5072869;28;20021;-67
2023/08/08 07:52:40;;;;;;;14.45;11.80;;;;;;;;;;5075150;28;20493;-67
2023/08/08 07:55:05;;;;;;;12.60;11.90;;;;;;;;;;5075152;28;20163;-66
2023/08/08 07:57:35;;;;;;;11.70;11.00;;;;;;;;;;5076927;28;20090;-66
2023/08/08 08:00:08;;;;;;;10.60;10.00;;;;;;;;;;5075927;28;20391;-66
2023/08/08 08:02:34;;;;;;;10.60;10.00;;;;;;;;;;5075405;28;20271;-67
2023/08/08 08:04:59;;;;;;;11.10;10.40;;;;;;;;;;5071908;28;20051;-66
2023/08/08 08:07:24;;;;;;;10.60;10.00;;;;;;;;;;5074707;28;20028;-67
2023/08/08 08:09:50;;;;;;;11.88;11.18;;;;;;;;;;5076808;28;20046;-66
2023/08/08 08:12:15;;;;;;;11.35;10.65;;;;;;;;;;5083048;28;20131;-67
2023/08/08 08:14:40;;;;;;;12.68;11.98;;;;;;;;;;5077338;28;20020;-66
2023/08/08 08:17:06;;;;;;;12.98;12.05;;;;;;;;;;5077211;28;20036;-66
2023/08/08 08:19:31;;;;;;;14.05;13.25;;;;;;;;;;5076249;28;20041;-66
2023/08/08 08:21:56;;;;;;;12.35;11.65;;;;;;;;;;5080078;28;20131;-66
2023/08/08 08:24:23;;;;;;;14.25;13.45;;;;;;;;;;5077535;28;20032;-67
2023/08/08 08:26:48;;;;;;;13.02;12.23;;;;;;;;;;5079859;28;20039;-67
2023/08/08 08:29:13;;;;;;;15.52;14.63;;;;;;;;;;5076824;28;20028;-65
2023/08/08 08:31:39;;;;;;;14.43;13.63;;;;;;;;;;5080230;28;20025;-68
2023/08/08 08:34:04;;;;;;;15.85;14.95;;;;;;;;;;5077581;28;20259;-68
2023/08/08 08:36:30;;;;;;;13.18;12.38;;;;;;;;;;5077470;28;20064;-67
2023/08/08 08:38:55;;;;;;;13.75;12.95;;;;;;;;;;5076348;28;20100;-69
2023/08/08 08:41:25;;;;;;;13.02;12.27;;;;;;;;;;5077971;28;20377;-68
2023/08/08 08:43:50;;;;;;;14.85;14.02;;;;;;;;;;5075396;28;20557;-68
2023/08/08 08:46:21;;;;;;;10.48;9.88;;;;;;;;;;5074752;28;20040;-66
2023/08/08 08:48:48;;;;;;;12.00;11.30;;;;;;;;;;5076801;28;20497;-68
2023/08/08 08:51:15;;;;;;;12.70;11.98;;;;;;;;;;5077314;28;20091;-66
2023/08/08 08:53:43;;;;;;;11.88;11.18;;;;;;;;;;5077041;28;20031;-65
2023/08/08 08:56:08;;;;;;;13.55;12.75;;;;;;;;;;5080215;28;20201;-67
2023/08/08 08:58:34;;;;;;;10.50;9.90;;;;;;;;;;5074571;28;20278;-65
2023/08/08 09:01:00;;;;;;;11.75;11.05;;;;;;;;;;5077103;28;20036;-64
2023/08/08 09:03:25;;;;;;;13.00;12.20;;;;;;;;;;5076754;28;20096;-65
2023/08/08 09:05:54;;;;;;;11.05;10.35;;;;;;;;;;5076438;28;20035;-65
2023/08/08 09:08:20;;;;;;;12.30;11.50;;;;;;;;;;5077144;28;20617;-66
2023/08/08 09:10:45;;;;;;;11.15;10.45;;;;;;;;;;5076246;28;20039;-66
2023/08/08 09:13:11;;;;;;;11.10;10.40;;;;;;;;;;5077037;28;20036;-66
2023/08/08 09:15:36;;;;;;;10.90;10.20;;;;;;;;;;5077665;28;20067;-66
2023/08/08 09:18:02;;;;;;;12.05;10.27;;;;;;;;;;5078294;28;20437;-66
2023/08/08 09:20:28;;;;;;;10.18;9.57;;;;;;;;;;5072580;28;20040;-67
2023/08/08 09:22:53;;;;;;;11.93;11.13;;;;;;;;;;5074474;28;20089;-67
2023/08/08 09:25:19;;;;;;;12.65;11.85;;;;;;;;;;5078016;28;20094;-65
2023/08/08 09:27:44;;;;;;;11.90;11.20;;;;;;;;;;5079200;28;20053;-65
2023/08/08 09:30:11;;;;;;;11.50;10.80;;;;;;;;;;5072861;28;20541;-65
2023/08/08 09:32:37;;;;;;;12.43;11.73;;;;;;;;;;5076556;28;20359;-65
2023/08/08 09:35:03;;;;;;;10.43;9.82;;;;;;;;;;5076850;28;20063;-65
2023/08/08 09:37:28;;;;;;;11.25;10.55;;;;;;;;;;5071333;28;20325;-65
2023/08/08 09:40:03;;;;;;;11.73;11.02;;;;;;;;;;5078856;28;20634;-65
2023/08/08 09:42:29;;;;;;;11.43;10.73;;;;;;;;;;5077575;28;20039;-66
2023/08/08 09:44:58;;;;;;;11.45;10.75;;;;;;;;;;5076998;28;20282;-67
2023/08/08 09:47:24;;;;;;;11.02;10.35;;;;;;;;;;5075376;28;20034;-67
2023/08/08 09:49:50;;;;;;;10.85;10.15;;;;;;;;;;5077445;28;20028;-66
2023/08/08 09:52:16;;;;;;;11.82;10.77;;;;;;;;;;5076896;28;20062;-67
2023/08/08 09:54:42;;;;;;;12.05;11.27;;;;;;;;;;5077055;28;20024;-65
2023/08/08 09:57:08;;;;;;;11.25;10.45;;;;;;;;;;5078762;28;20063;-66
2023/08/08 09:59:35;;;;;;;11.65;10.95;;;;;;;;;;5076312;28;20447;-66
2023/08/08 10:02:01;;;;;;;11.30;10.60;;;;;;;;;;5077362;28;20024;-67
2023/08/08 10:04:27;;;;;;;17.60;16.60;;;;;;;;;;5073349;28;20059;-65
2023/08/08 10:06:52;;;;;;;21.10;19.92;;;;;;;;;;5076904;28;20457;-66
2023/08/08 10:09:18;;;;;;;11.63;10.93;;;;;;;;;;5077167;28;20387;-68
2023/08/08 10:11:45;;;;;;;17.67;16.67;;;;;;;;;;5075663;28;20039;-66
2023/08/08 10:14:11;;;;;;;18.83;17.77;;;;;;;;;;5074078;28;20111;-66
2023/08/08 10:16:39;;;;;;;23.15;21.90;;;;;;;;;;5076426;28;20108;-66
2023/08/08 10:19:07;;;;;;;15.57;14.70;;;;;;;;;;5075000;28;20417;-66
2023/08/08 10:21:42;;;;;;;21.70;20.55;;;;;;;;;;5075033;28;20029;-67
2023/08/08 10:24:09;;;;;;;35.20;33.40;;;;;;;;;;5073072;28;20045;-66
2023/08/08 10:26:54;;;;;;;66.05;62.22;;;;;;;;;;5079874;28;20024;-66
2023/08/08 10:29:20;;;;;;;46.85;44.50;;;;;;;;;;5073997;28;20031;-67
2023/08/08 10:32:21;;;;;;;25.17;23.83;;;;;;;;;;5075005;28;20058;-67
2023/08/08 10:34:47;;;;;;;25.40;24.05;;;;;;;;;;5075068;28;20043;-66
2023/08/08 10:37:20;;;;;;;12.90;12.15;;;;;;;;;;5074077;28;20559;-67
2023/08/08 10:39:52;;;;;;;22.85;21.63;;;;;;;;;;5074419;28;20039;-68
2023/08/08 10:42:18;;;;;;;37.45;35.53;;;;;;;;;;5075562;28;20047;-67
2023/08/08 10:44:52;;;;;;;21.98;20.35;;;;;;;;;;5075797;28;20031;-68
2023/08/08 10:47:22;;;;;;;38.08;36.08;;;;;;;;;;5072985;28;20234;-68
2023/08/08 10:50:02;;;;;;;154.60;147.07;;;;;;;;;;5072956;28;20036;-67
2023/08/08 10:52:29;;;;;;;85.88;81.60;;;;;;;;;;5073496;28;20032;-65
2023/08/08 10:54:54;;;;;;;40.00;37.97;;;;;;;;;;5074944;28;20039;-68
2023/08/08 10:57:24;;;;;;;112.65;107.10;;;;;;;;;;5075419;28;20025;-66
2023/08/08 10:59:49;;;;;;;72.90;69.30;;;;;;;;;;5075931;28;20377;-67
2023/08/08 11:02:15;;;;;;;137.05;130.35;;;;;;;;;;5078312;28;20051;-67
2023/08/08 11:04:41;;;;;;;40.63;38.53;;;;;;;;;;5074178;28;20048;-66
2023/08/08 11:07:07;;;;;;;44.72;42.47;;;;;;;;;;5073806;28;20040;-67
2023/08/08 11:09:32;;;;;;;89.72;85.32;;;;;;;;;;5070977;28;20036;-67
2023/08/08 11:11:58;;;;;;;33.53;31.80;;;;;;;;;;5077546;28;20036;-66
2023/08/08 11:14:23;;;;;;;156.35;148.75;;;;;;;;;;5074281;28;20069;-66
2023/08/08 11:16:50;;;;;;;140.38;133.52;;;;;;;;;;5075562;28;20112;-66
2023/08/08 11:19:19;;;;;;;52.47;49.85;;;;;;;;;;5074442;28;20035;-67
2023/08/08 11:21:45;;;;;;;78.35;74.47;;;;;;;;;;5074658;28;20086;-67
2023/08/08 11:24:12;;;;;;;82.75;78.70;;;;;;;;;;5073042;28;20028;-67
2023/08/08 11:26:39;;;;;;;54.25;51.50;;;;;;;;;;5076231;28;20422;-68
2023/08/08 11:29:08;;;;;;;56.33;53.53;;;;;;;;;;5070405;28;20036;-68
2023/08/08 11:31:34;;;;;;;25.55;24.08;;;;;;;;;;5074839;28;20051;-68
2023/08/08 11:34:00;;;;;;;91.47;87.00;;;;;;;;;;5075467;28;20102;-72
2023/08/08 11:36:29;;;;;;;40.55;38.47;;;;;;;;;;5072629;28;20115;-74
2023/08/08 11:38:56;;;;;;;138.80;132.02;;;;;;;;;;5074876;28;20033;-66
2023/08/08 11:41:23;;;;;;;138.48;131.70;;;;;;;;;;5075084;28;20359;-67
2023/08/08 11:43:50;;;;;;;138.82;132.00;;;;;;;;;;5080304;28;20040;-67
2023/08/08 11:46:17;;;;;;;145.35;138.13;;;;;;;;;;5076583;28;20040;-68
2023/08/08 11:48:46;;;;;;;134.45;127.78;;;;;;;;;;5078366;28;20078;-67
2023/08/08 11:51:14;;;;;;;137.45;130.68;;;;;;;;;;5080554;28;20032;-68
2023/08/08 11:53:52;;;;;;;165.43;157.32;;;;;;;;;;5080149;28;20361;-68
2023/08/08 11:56:21;;;;;;;152.60;145.13;;;;;;;;;;5077111;28;20029;-69
2023/08/08 11:58:53;;;;;;;140.25;133.32;;;;;;;;;;5076683;28;20035;-69
2023/08/08 12:01:26;;;;;;;150.80;143.40;;;;;;;;;;5081212;28;20035;-69
2023/08/08 12:03:51;;;;;;;160.50;152.68;;;;;;;;;;5075757;28;20045;-69
2023/08/08 12:06:18;;;;;;;161.40;153.50;;;;;;;;;;5076185;28;20058;-67
2023/08/08 12:08:44;;;;;;;170.48;162.20;;;;;;;;;;5077315;28;20271;-67
2023/08/08 12:11:11;;;;;;;178.98;170.30;;;;;;;;;;5079337;28;20036;-68
2023/08/08 12:13:39;;;;;;;185.02;176.07;;;;;;;;;;5078959;28;20067;-68
2023/08/08 12:16:06;;;;;;;158.90;151.15;;;;;;;;;;5079298;28;20036;-70
2023/08/08 12:18:32;;;;;;;169.65;161.35;;;;;;;;;;5078642;28;20039;-69
2023/08/08 12:20:58;;;;;;;152.43;144.80;;;;;;;;;;5077725;28;20087;-69
2023/08/08 12:23:26;;;;;;;180.95;172.20;;;;;;;;;;5077102;28;20036;-68
2023/08/08 12:25:52;;;;;;;145.00;137.88;;;;;;;;;;5077504;28;20028;-68
2023/08/08 12:28:17;;;;;;;166.70;158.63;;;;;;;;;;5075998;28;20261;-69
2023/08/08 12:30:43;;;;;;;165.40;157.27;;;;;;;;;;5079095;28;20223;-69
2023/08/08 12:33:08;;;;;;;146.90;139.73;;;;;;;;;;5081464;28;20153;-69
2023/08/08 12:35:33;;;;;;;147.13;139.93;;;;;;;;;;5077700;28;20492;-68
2023/08/08 12:37:59;;;;;;;181.70;172.90;;;;;;;;;;5078578;28;20529;-69
2023/08/08 12:40:25;;;;;;;100.90;95.95;;;;;;;;;;5076636;28;20028;-69
2023/08/08 12:42:50;;;;;;;100.75;95.80;;;;;;;;;;5073664;28;20388;-67
2023/08/08 12:45:17;;;;;;;96.15;91.43;;;;;;;;;;5075328;28;20043;-68
2023/08/08 12:47:43;;;;;;;85.07;80.88;;;;;;;;;;5076444;28;20155;-69
2023/08/08 12:50:09;;;;;;;65.97;62.70;;;;;;;;;;5077747;28;20135;-68
2023/08/08 12:52:35;;;;;;;82.75;78.65;;;;;;;;;;5074834;28;20028;-76
2023/08/08 12:55:01;;;;;;;80.40;76.45;;;;;;;;;;5077710;28;20024;-76
2023/08/08 12:57:26;;;;;;;79.68;75.72;;;;;;;;;;5077663;28;20039;-73
2023/08/08 12:59:52;;;;;;;81.32;77.32;;;;;;;;;;5074536;28;20467;-74
2023/08/08 13:02:17;;;;;;;60.33;57.30;;;;;;;;;;5076564;28;20425;-73
2023/08/08 13:04:43;;;;;;;73.57;69.93;;;;;;;;;;5076538;28;20028;-72
2023/08/08 13:07:09;;;;;;;92.15;87.60;;;;;;;;;;5076561;28;20038;-74
2023/08/08 13:09:34;;;;;;;86.55;82.25;;;;;;;;;;5076745;28;20040;-73
2023/08/08 13:12:00;;;;;;;70.70;67.15;;;;;;;;;;5079369;28;20032;-73
2023/08/08 13:14:25;;;;;;;95.63;90.90;;;;;;;;;;5077517;28;20036;-75
2023/08/08 13:16:51;;;;;;;120.45;114.55;;;;;;;;;;5075145;28;20036;-75
2023/08/08 13:19:19;;;;;;;129.15;122.82;;;;;;;;;;5075356;28;20040;-73
2023/08/08 13:21:45;;;;;;;85.88;81.65;;;;;;;;;;5075229;28;20024;-74
2023/08/08 13:24:12;;;;;;;95.15;90.50;;;;;;;;;;5076535;28;20446;-72
2023/08/08 13:26:38;;;;;;;126.85;120.63;;;;;;;;;;5076408;28;20528;-72
2023/08/08 13:29:04;;;;;;;67.82;64.22;;;;;;;;;;5076491;28;20098;-71
2023/08/08 13:31:29;;;;;;;96.80;92.05;;;;;;;;;;5076062;28;20036;-73
2023/08/08 13:33:54;;;;;;;62.47;59.33;;;;;;;;;;5075787;28;20029;-75
2023/08/08 13:36:20;;;;;;;81.05;77.07;;;;;;;;;;5073899;28;20090;-75
2023/08/08 13:38:45;;;;;;;86.20;81.95;;;;;;;;;;5076099;28;20063;-76
2023/08/08 13:41:10;;;;;;;114.13;108.50;;;;;;;;;;5076881;28;20433;-73
2023/08/08 13:43:36;;;;;;;62.90;59.75;;;;;;;;;;5074802;28;20329;-76
2023/08/08 13:46:03;;;;;;;54.22;51.47;;;;;;;;;;5075791;28;20040;-74
2023/08/08 13:48:29;;;;;;;54.05;51.30;;;;;;;;;;5075641;28;20047;-75
2023/08/08 13:50:55;;;;;;;71.55;68.05;;;;;;;;;;5075865;28;20361;-73
2023/08/08 13:53:20;;;;;;;64.68;61.45;;;;;;;;;;5075203;28;20117;-73
2023/08/08 13:55:45;;;;;;;110.18;104.75;;;;;;;;;;5074121;28;20066;-72
2023/08/08 13:58:11;;;;;;;85.82;81.60;;;;;;;;;;5076407;28;20285;-73
2023/08/08 14:00:36;;;;;;;70.30;66.80;;;;;;;;;;5074832;28;20056;-72
2023/08/08 14:03:02;;;;;;;58.97;56.03;;;;;;;;;;5076110;28;20115;-74
2023/08/08 14:05:28;;;;;;;68.78;65.38;;;;;;;;;;5072584;28;20862;-76
2023/08/08 14:07:54;;;;;;;90.55;86.13;;;;;;;;;;5074315;28;20074;-75